KSTL METAR and TAF | Updated Today

KSTL METAR

St Louis Lambert International Airport

Observation time: 37 min. ago

KSTL 301851Z 28014G23KT 10SM CLR 04/M11 A3030 RMK AO2 SLP268 T00391106 $

Need help? Read our tutorial on how to read METARs or read the parsed version below.

St Louis Lambert International Airport (KSTL) METAR

  • Weather conditions on Wed, 30 Nov 2022 18:51:00 +0000 (37 min. ago):
  • Present conditions: Dry
  • Clouds: Clear skies
  • Visibility: 16093 meters
  • Wind: 280 degrees at 14 knots
  • Temperature: 4 celsius
  • Dew point: -11 celsius
  • Pressure: 30.3 inHg
  • Remarks: AO2 SLP268 T00391106 $


Useful to know...

KSTL TAF

St Louis Lambert International Airport

KSTL 301802Z 3018/0124 27014G23KT P6SM SKC FM010100 29007KT P6SM SKC FM010400 VRB03KT P6SM SKC FM011500 14006KT P6SM SCT250
Observation time: 86 min. ago
Need help? Read our tutorial on how to read TAFs or read the parsed version below.

Parsed version of TAF for St Louis Lambert International Airport (KSTL)

  • From 30 November at 18:00 UTC, to day 01 of the month at 24:00 UTC
  • Clouds: No significant changes expected
  • Wind: 270 degrees at 14
  • From day 1 of the month at 01:00 UTC
  • Clouds: No significant changes expected
  • Wind: 290 degrees at 7
  • From day 1 of the month at 04:00 UTC
  • Clouds: No significant changes expected
  • Wind: Variable at 3
  • From day 1 of the month at 15:00 UTC
  • Clouds: Scattered at 7620 meters
  • Wind: 140 degrees at 6